Terminal Aerodrome Forecast
Issued by NWS

Home | Current Version | Previous Version | Text Only | Print | Product List | Glossary On
Versions: 1 2 3 4 5 6 7 8 9 10 11 12 13 14 15 16 17 18 19 20 21 22 23 24 25 26 27 28 29 30 31 32
000
FTAK31 PAFA 152338
TAFAUN
TAF
PAUN 152338Z 1600/1624 34004KT P6SM VCSH OVC100
     FM160500 10008KT P6SM VCSH BKN050 OVC120
     FM160800 10006KT P6SM -SHRA SCT025 OVC050
     FM161200 10007KT P6SM -RA BKN025 OVC050
     FM161900 12009KT P6SM BKN035 BKN100=

USA.gov is the U.S. government's official web portal to all federal, state and local government web resources and services.